Terminal Aerodrome Forecast
Issued by NWS

Home | Current Version | Previous Version | Text Only | Print | Product List | Glossary On
Versions: 1 2 3 4 5 6 7 8 9 10 11 12 13 14 15 16 17 18
000
FTUS42 KKEY 211503 AAA
TAFMTH
TAF AMD
KMTH 211503Z 2115/2212 17011KT P6SM FEW028
     FM220000 18006KT P6SM SCT028 SCT050
     FM220300 19009KT P6SM SCT028 BKN050=

USA.gov is the U.S. government's official web portal to all federal, state and local government web resources and services.